sensor_id;sensor_type;location;lat;lon;timestamp;pressure;altitude;pressure_sealevel;temperature;humidity
59877;BME280;45749;51.140;17.184;2023-03-26T00:01:12;98970.09;;;7.99;78.19
59877;BME280;45749;51.140;17.184;2023-03-26T00:03:40;98969.28;;;7.98;78.20
59877;BME280;45749;51.140;17.184;2023-03-26T00:06:09;98975.50;;;7.97;78.26
59877;BME280;45749;51.140;17.184;2023-03-26T00:08:35;98985.03;;;7.98;78.35
59877;BME280;45749;51.140;17.184;2023-03-26T00:11:02;98976.47;;;7.96;78.48
59877;BME280;45749;51.140;17.184;2023-03-26T00:13:28;98980.03;;;7.95;78.43
59877;BME280;45749;51.140;17.184;2023-03-26T00:15:54;98977.53;;;7.94;78.63
59877;BME280;45749;51.140;17.184;2023-03-26T00:18:20;98977.53;;;7.94;78.57
59877;BME280;45749;51.140;17.184;2023-03-26T00:20:49;98970.88;;;7.90;78.56
59877;BME280;45749;51.140;17.184;2023-03-26T00:23:15;98968.38;;;7.88;78.53
59877;BME280;45749;51.140;17.184;2023-03-26T00:25:41;98972.53;;;7.91;78.49
59877;BME280;45749;51.140;17.184;2023-03-26T00:28:07;98964.09;;;7.87;78.59
59877;BME280;45749;51.140;17.184;2023-03-26T00:30:33;98972.06;;;7.86;78.49
59877;BME280;45749;51.140;17.184;2023-03-26T00:33:06;98966.00;;;7.85;78.74
59877;BME280;45749;51.140;17.184;2023-03-26T00:35:35;98968.63;;;7.85;78.73
59877;BME280;45749;51.140;17.184;2023-03-26T00:38:01;98958.13;;;7.85;78.93
59877;BME280;45749;51.140;17.184;2023-03-26T00:40:26;98963.25;;;7.87;78.92
59877;BME280;45749;51.140;17.184;2023-03-26T00:42:53;98951.78;;;7.88;78.95
59877;BME280;45749;51.140;17.184;2023-03-26T00:45:19;98956.22;;;7.87;78.99
59877;BME280;45749;51.140;17.184;2023-03-26T00:47:46;98949.28;;;7.86;79.23
59877;BME280;45749;51.140;17.184;2023-03-26T00:50:12;98946.66;;;7.86;79.18
59877;BME280;45749;51.140;17.184;2023-03-26T00:52:43;98946.53;;;7.88;79.29
59877;BME280;45749;51.140;17.184;2023-03-26T00:55:11;98947.34;;;7.88;79.57
59877;BME280;45749;51.140;17.184;2023-03-26T00:57:36;98951.63;;;7.89;79.72
59877;BME280;45749;51.140;17.184;2023-03-26T01:00:09;98949.03;;;7.89;79.59
59877;BME280;45749;51.140;17.184;2023-03-26T01:02:41;98947.09;;;7.91;79.90
59877;BME280;45749;51.140;17.184;2023-03-26T01:08:10;98943.66;;;7.91;80.19
59877;BME280;45749;51.140;17.184;2023-03-26T01:10:40;98953.06;;;7.93;79.98
59877;BME280;45749;51.140;17.184;2023-03-26T01:13:07;98950.19;;;7.96;79.89
59877;BME280;45749;51.140;17.184;2023-03-26T01:15:33;98944.69;;;7.99;79.92
59877;BME280;45749;51.140;17.184;2023-03-26T01:18:04;98947.16;;;8.01;79.94
59877;BME280;45749;51.140;17.184;2023-03-26T01:20:33;98947.88;;;8.03;80.00
59877;BME280;45749;51.140;17.184;2023-03-26T01:23:05;98946.91;;;8.04;79.94
59877;BME280;45749;51.140;17.184;2023-03-26T01:25:37;98951.91;;;8.07;79.91
59877;BME280;45749;51.140;17.184;2023-03-26T01:28:05;98949.28;;;8.07;80.06
59877;BME280;45749;51.140;17.184;2023-03-26T01:30:41;98950.84;;;8.10;79.81
59877;BME280;45749;51.140;17.184;2023-03-26T01:33:25;98948.88;;;8.12;79.89
59877;BME280;45749;51.140;17.184;2023-03-26T01:36:05;98955.94;;;8.11;79.98
59877;BME280;45749;51.140;17.184;2023-03-26T01:38:55;98952.50;;;8.11;79.70
59877;BME280;45749;51.140;17.184;2023-03-26T01:44:22;98948.56;;;8.05;79.75
59877;BME280;45749;51.140;17.184;2023-03-26T01:46:52;98955.06;;;8.01;79.82
59877;BME280;45749;51.140;17.184;2023-03-26T01:49:18;98952.94;;;7.95;79.82
59877;BME280;45749;51.140;17.184;2023-03-26T01:51:43;98949.47;;;7.94;79.79
59877;BME280;45749;51.140;17.184;2023-03-26T01:54:16;98951.38;;;7.92;79.87
59877;BME280;45749;51.140;17.184;2023-03-26T01:59:36;98953.34;;;7.90;79.95
59877;BME280;45749;51.140;17.184;2023-03-26T02:02:10;98946.38;;;7.89;80.15
59877;BME280;45749;51.140;17.184;2023-03-26T02:04:51;98947.34;;;7.88;80.33
59877;BME280;45749;51.140;17.184;2023-03-26T02:07:41;98946.53;;;7.88;80.32
59877;BME280;45749;51.140;17.184;2023-03-26T02:10:21;98947.34;;;7.88;80.20
59877;BME280;45749;51.140;17.184;2023-03-26T02:12:49;98933.50;;;7.86;80.45
59877;BME280;45749;51.140;17.184;2023-03-26T02:15:14;98943.91;;;7.88;80.48
59877;BME280;45749;51.140;17.184;2023-03-26T02:17:42;98938.66;;;7.88;80.45
59877;BME280;45749;51.140;17.184;2023-03-26T02:20:10;98939.38;;;7.90;80.55
59877;BME280;45749;51.140;17.184;2023-03-26T02:22:37;98933.25;;;7.89;80.70
59877;BME280;45749;51.140;17.184;2023-03-26T02:25:09;98938.41;;;7.91;80.55
59877;BME280;45749;51.140;17.184;2023-03-26T02:27:36;98933.97;;;7.91;80.66
59877;BME280;45749;51.140;17.184;2023-03-26T02:30:04;98935.53;;;7.94;80.72
59877;BME280;45749;51.140;17.184;2023-03-26T02:32:29;98930.00;;;7.97;80.75
59877;BME280;45749;51.140;17.184;2023-03-26T02:34:55;98934.28;;;7.98;80.71
59877;BME280;45749;51.140;17.184;2023-03-26T02:37:21;98932.38;;;8.00;80.54
59877;BME280;45749;51.140;17.184;2023-03-26T02:39:46;98926.97;;;8.02;80.79
59877;BME280;45749;51.140;17.184;2023-03-26T02:42:12;98935.84;;;8.01;80.61
59877;BME280;45749;51.140;17.184;2023-03-26T02:44:37;98928.78;;;8.01;80.30
59877;BME280;45749;51.140;17.184;2023-03-26T02:47:04;98930.44;;;8.02;80.52
59877;BME280;45749;51.140;17.184;2023-03-26T02:49:30;98932.97;;;8.04;80.65
59877;BME280;45749;51.140;17.184;2023-03-26T02:51:55;98930.19;;;8.05;80.59
59877;BME280;45749;51.140;17.184;2023-03-26T02:54:21;98934.50;;;8.06;80.61
59877;BME280;45749;51.140;17.184;2023-03-26T02:56:47;98932.56;;;8.08;80.51
59877;BME280;45749;51.140;17.184;2023-03-26T02:59:13;98936.72;;;8.11;80.40
59877;BME280;45749;51.140;17.184;2023-03-26T03:01:39;98932.19;;;8.13;80.49
59877;BME280;45749;51.140;17.184;2023-03-26T03:04:08;98935.50;;;8.15;80.68
59877;BME280;45749;51.140;17.184;2023-03-26T03:06:33;98931.91;;;8.16;80.44
59877;BME280;45749;51.140;17.184;2023-03-26T03:08:59;98933.44;;;8.18;80.52
59877;BME280;45749;51.140;17.184;2023-03-26T03:11:26;98931.53;;;8.20;80.66
59877;BME280;45749;51.140;17.184;2023-03-26T03:13:52;98937.59;;;8.21;81.00
59877;BME280;45749;51.140;17.184;2023-03-26T03:16:18;98938.44;;;8.21;81.12
59877;BME280;45749;51.140;17.184;2023-03-26T03:18:44;98934.84;;;8.22;81.33
59877;BME280;45749;51.140;17.184;2023-03-26T03:21:11;98935.69;;;8.23;81.22
59877;BME280;45749;51.140;17.184;2023-03-26T03:23:37;98939.00;;;8.25;81.18
59877;BME280;45749;51.140;17.184;2023-03-26T03:26:02;98939.84;;;8.26;81.48
59877;BME280;45749;51.140;17.184;2023-03-26T03:28:28;98941.53;;;8.27;81.37
59877;BME280;45749;51.140;17.184;2023-03-26T03:30:54;98944.97;;;8.27;81.60
59877;BME280;45749;51.140;17.184;2023-03-26T03:33:22;98950.09;;;8.29;81.51
59877;BME280;45749;51.140;17.184;2023-03-26T03:35:48;98951.88;;;8.28;81.58
59877;BME280;45749;51.140;17.184;2023-03-26T03:38:15;98961.31;;;8.31;81.52
59877;BME280;45749;51.140;17.184;2023-03-26T03:40:41;98957.84;;;8.30;81.49
59877;BME280;45749;51.140;17.184;2023-03-26T03:43:07;98954.97;;;8.33;81.56
59877;BME280;45749;51.140;17.184;2023-03-26T03:45:33;98954.81;;;8.35;81.66
59877;BME280;45749;51.140;17.184;2023-03-26T03:47:58;98961.16;;;8.32;81.65
59877;BME280;45749;51.140;17.184;2023-03-26T03:50:24;98964.78;;;8.31;81.89
59877;BME280;45749;51.140;17.184;2023-03-26T03:52:50;98964.78;;;8.31;82.02
59877;BME280;45749;51.140;17.184;2023-03-26T03:55:15;98951.88;;;8.28;82.16
59877;BME280;45749;51.140;17.184;2023-03-26T03:57:41;98952.84;;;8.27;82.54
59877;BME280;45749;51.140;17.184;2023-03-26T04:00:07;98953.94;;;8.25;82.50
59877;BME280;45749;51.140;17.184;2023-03-26T04:02:36;98950.59;;;8.22;82.43
59877;BME280;45749;51.140;17.184;2023-03-26T04:05:03;98960.28;;;8.22;82.54
59877;BME280;45749;51.140;17.184;2023-03-26T04:07:30;98958.63;;;8.21;82.66
59877;BME280;45749;51.140;17.184;2023-03-26T04:09:57;98956.97;;;8.20;82.50
59877;BME280;45749;51.140;17.184;2023-03-26T04:12:26;98956.41;;;8.16;82.54
59877;BME280;45749;51.140;17.184;2023-03-26T04:14:52;98952.22;;;8.14;82.55
59877;BME280;45749;51.140;17.184;2023-03-26T04:17:18;98949.72;;;8.12;82.42
59877;BME280;45749;51.140;17.184;2023-03-26T04:19:46;98958.72;;;8.10;82.16
59877;BME280;45749;51.140;17.184;2023-03-26T04:22:11;98958.56;;;8.11;82.17
59877;BME280;45749;51.140;17.184;2023-03-26T04:24:37;98951.91;;;8.07;82.33
59877;BME280;45749;51.140;17.184;2023-03-26T04:27:05;98957.16;;;8.07;82.04
59877;BME280;45749;51.140;17.184;2023-03-26T04:29:35;98959.78;;;8.07;81.94
59877;BME280;45749;51.140;17.184;2023-03-26T04:32:02;98960.63;;;8.08;81.83
59877;BME280;45749;51.140;17.184;2023-03-26T04:34:32;98954.41;;;8.09;81.68
59877;BME280;45749;51.140;17.184;2023-03-26T04:37:00;98949.03;;;8.10;81.30
59877;BME280;45749;51.140;17.184;2023-03-26T04:39:26;98958.56;;;8.11;80.85
59877;BME280;45749;51.140;17.184;2023-03-26T04:41:54;98951.50;;;8.12;80.76
59877;BME280;45749;51.140;17.184;2023-03-26T04:44:20;98956.78;;;8.12;80.80
59877;BME280;45749;51.140;17.184;2023-03-26T04:46:49;98954.16;;;8.12;80.45
59877;BME280;45749;51.140;17.184;2023-03-26T04:49:17;98950.44;;;8.14;80.58
59877;BME280;45749;51.140;17.184;2023-03-26T04:51:43;98952.81;;;8.17;80.51
59877;BME280;45749;51.140;17.184;2023-03-26T04:54:12;98951.84;;;8.18;80.29
59877;BME280;45749;51.140;17.184;2023-03-26T04:56:43;98956.00;;;8.21;80.31
59877;BME280;45749;51.140;17.184;2023-03-26T04:59:31;98968.31;;;8.20;80.27
59877;BME280;45749;51.140;17.184;2023-03-26T05:02:03;98959.59;;;8.20;80.12
59877;BME280;45749;51.140;17.184;2023-03-26T05:04:29;98953.53;;;8.19;79.95
59877;BME280;45749;51.140;17.184;2023-03-26T05:06:56;98970.22;;;8.18;79.59
59877;BME280;45749;51.140;17.184;2023-03-26T05:09:23;98961.50;;;8.18;79.59
59877;BME280;45749;51.140;17.184;2023-03-26T05:11:49;98966.91;;;8.16;79.94
59877;BME280;45749;51.140;17.184;2023-03-26T05:14:15;98965.47;;;8.12;79.78
59877;BME280;45749;51.140;17.184;2023-03-26T05:16:41;98963.00;;;8.11;80.09
59877;BME280;45749;51.140;17.184;2023-03-26T05:19:07;98964.09;;;8.08;79.98
59877;BME280;45749;51.140;17.184;2023-03-26T05:21:33;98960.63;;;8.08;80.50
59877;BME280;45749;51.140;17.184;2023-03-26T05:23:59;98960.88;;;8.05;80.44
59877;BME280;45749;51.140;17.184;2023-03-26T05:26:24;98963.97;;;8.10;80.77
59877;BME280;45749;51.140;17.184;2023-03-26T05:28:50;98966.59;;;8.10;80.62
59877;BME280;45749;51.140;17.184;2023-03-26T05:31:18;98962.16;;;8.10;80.52
59877;BME280;45749;51.140;17.184;2023-03-26T05:33:45;98963.13;;;8.09;80.67
59877;BME280;45749;51.140;17.184;2023-03-26T05:36:11;98963.25;;;8.08;80.61
59877;BME280;45749;51.140;17.184;2023-03-26T05:38:38;98959.91;;;8.06;80.87
59877;BME280;45749;51.140;17.184;2023-03-26T05:41:05;98958.13;;;8.06;80.82
59877;BME280;45749;51.140;17.184;2023-03-26T05:43:32;98960.78;;;8.06;80.89
59877;BME280;45749;51.140;17.184;2023-03-26T05:45:58;98959.78;;;8.07;81.17
59877;BME280;45749;51.140;17.184;2023-03-26T05:48:24;98960.63;;;8.08;80.90
59877;BME280;45749;51.140;17.184;2023-03-26T05:50:52;98963.97;;;8.10;80.94
59877;BME280;45749;51.140;17.184;2023-03-26T05:53:19;98959.53;;;8.10;81.15
59877;BME280;45749;51.140;17.184;2023-03-26T05:55:46;98967.16;;;8.13;81.01
59877;BME280;45749;51.140;17.184;2023-03-26T05:58:15;98970.38;;;8.17;81.32
59877;BME280;45749;51.140;17.184;2023-03-26T06:00:40;98969.41;;;8.18;81.01
59877;BME280;45749;51.140;17.184;2023-03-26T06:03:06;98963.56;;;8.14;80.80
59877;BME280;45749;51.140;17.184;2023-03-26T06:05:37;98971.19;;;8.17;81.08
59877;BME280;45749;51.140;17.184;2023-03-26T06:08:03;98975.38;;;8.20;81.04
59877;BME280;45749;51.140;17.184;2023-03-26T06:10:29;98979.50;;;8.22;81.10
59877;BME280;45749;51.140;17.184;2023-03-26T06:12:55;98972.47;;;8.23;81.09
59877;BME280;45749;51.140;17.184;2023-03-26T06:15:20;98978.56;;;8.23;81.24
59877;BME280;45749;51.140;17.184;2023-03-26T06:17:46;98981.88;;;8.26;81.24
59877;BME280;45749;51.140;17.184;2023-03-26T06:20:11;98985.38;;;8.26;81.20
59877;BME280;45749;51.140;17.184;2023-03-26T06:22:37;98982.84;;;8.25;81.32
59877;BME280;45749;51.140;17.184;2023-03-26T06:25:03;98982.47;;;8.29;81.35
59877;BME280;45749;51.140;17.184;2023-03-26T06:27:28;98988.44;;;8.31;81.43
59877;BME280;45749;51.140;17.184;2023-03-26T06:29:54;98987.44;;;8.32;81.47
59877;BME280;45749;51.140;17.184;2023-03-26T06:32:19;98990.78;;;8.34;81.27
59877;BME280;45749;51.140;17.184;2023-03-26T06:34:44;98997.59;;;8.37;81.43
59877;BME280;45749;51.140;17.184;2023-03-26T06:37:10;98991.50;;;8.36;81.48
59877;BME280;45749;51.140;17.184;2023-03-26T06:39:35;98991.97;;;8.41;81.39
59877;BME280;45749;51.140;17.184;2023-03-26T06:42:01;98995.31;;;8.43;81.22
59877;BME280;45749;51.140;17.184;2023-03-26T06:44:26;98999.47;;;8.46;81.07
59877;BME280;45749;51.140;17.184;2023-03-26T06:46:52;99000.16;;;8.48;81.16
59877;BME280;45749;51.140;17.184;2023-03-26T06:49:17;98991.19;;;8.51;81.18
59877;BME280;45749;51.140;17.184;2023-03-26T06:51:43;98987.47;;;8.53;81.30
59877;BME280;45749;51.140;17.184;2023-03-26T06:54:10;98993.41;;;8.55;81.07
59877;BME280;45749;51.140;17.184;2023-03-26T06:56:36;98987.91;;;8.58;81.06
59877;BME280;45749;51.140;17.184;2023-03-26T06:59:01;98983.22;;;8.62;81.16
59877;BME280;45749;51.140;17.184;2023-03-26T07:01:27;98995.16;;;8.66;80.97
59877;BME280;45749;51.140;17.184;2023-03-26T07:03:52;98982.69;;;8.68;80.62
59877;BME280;45749;51.140;17.184;2023-03-26T07:06:18;98990.06;;;8.74;80.55
59877;BME280;45749;51.140;17.184;2023-03-26T07:08:44;98985.50;;;8.76;80.72
59877;BME280;45749;51.140;17.184;2023-03-26T07:11:09;98991.19;;;8.81;80.29
59877;BME280;45749;51.140;17.184;2023-03-26T07:13:35;98987.34;;;8.85;80.60
59877;BME280;45749;51.140;17.184;2023-03-26T07:16:01;98988.75;;;8.89;80.47
59877;BME280;45749;51.140;17.184;2023-03-26T07:18:27;99003.28;;;8.93;80.17
59877;BME280;45749;51.140;17.184;2023-03-26T07:20:53;99006.63;;;8.96;80.17
59877;BME280;45749;51.140;17.184;2023-03-26T07:23:18;98994.97;;;8.98;80.08
59877;BME280;45749;51.140;17.184;2023-03-26T07:25:46;99000.13;;;9.00;79.99
59877;BME280;45749;51.140;17.184;2023-03-26T07:28:46;98995.28;;;9.05;79.44
59877;BME280;45749;51.140;17.184;2023-03-26T07:31:32;98987.25;;;9.06;79.79
59877;BME280;45749;51.140;17.184;2023-03-26T07:34:31;98992.25;;;9.09;79.46
59877;BME280;45749;51.140;17.184;2023-03-26T07:37:02;98990.63;;;9.18;79.32
59877;BME280;45749;51.140;17.184;2023-03-26T07:42:29;98995.34;;;9.24;78.50
59877;BME280;45749;51.140;17.184;2023-03-26T07:45:00;98996.19;;;9.25;78.35
59877;BME280;45749;51.140;17.184;2023-03-26T07:47:34;99002.69;;;9.30;78.56
59877;BME280;45749;51.140;17.184;2023-03-26T07:49:59;98994.53;;;9.33;77.55
59877;BME280;45749;51.140;17.184;2023-03-26T07:52:25;98989.00;;;9.36;78.43
59877;BME280;45749;51.140;17.184;2023-03-26T07:54:52;98989.44;;;9.42;78.25
59877;BME280;45749;51.140;17.184;2023-03-26T08:00:14;98988.47;;;9.52;78.31
59877;BME280;45749;51.140;17.184;2023-03-26T08:03:02;98986.22;;;9.57;78.50
59877;BME280;45749;51.140;17.184;2023-03-26T08:06:13;98987.50;;;9.63;77.80
59877;BME280;45749;51.140;17.184;2023-03-26T08:11:28;98976.84;;;9.74;78.31
59877;BME280;45749;51.140;17.184;2023-03-26T08:17:14;98977.94;;;9.81;77.86
59877;BME280;45749;51.140;17.184;2023-03-26T08:20:03;98972.78;;;9.90;77.62
59877;BME280;45749;51.140;17.184;2023-03-26T08:22:40;98975.16;;;9.93;76.89
59877;BME280;45749;51.140;17.184;2023-03-26T08:30:33;98960.69;;;10.06;76.63
59877;BME280;45749;51.140;17.184;2023-03-26T08:33:12;98962.38;;;10.07;76.48
59877;BME280;45749;51.140;17.184;2023-03-26T08:35:41;98952.50;;;10.09;76.84
59877;BME280;45749;51.140;17.184;2023-03-26T08:38:14;98964.03;;;10.08;77.00
59877;BME280;45749;51.140;17.184;2023-03-26T08:54:58;98941.56;;;10.33;76.45
59877;BME280;45749;51.140;17.184;2023-03-26T09:00:41;98949.81;;;10.48;75.55
59877;BME280;45749;51.140;17.184;2023-03-26T09:11:37;98943.63;;;10.67;74.71
59877;BME280;45749;51.140;17.184;2023-03-26T09:45:07;98951.88;;;9.69;78.99
59877;BME280;45749;51.140;17.184;2023-03-26T09:47:58;98948.41;;;9.49;79.64
59877;BME280;45749;51.140;17.184;2023-03-26T10:01:36;98953.25;;;9.44;81.39
59877;BME280;45749;51.140;17.184;2023-03-26T10:06:45;98947.03;;;9.64;82.07
59877;BME280;45749;51.140;17.184;2023-03-26T10:18:03;98938.50;;;10.28;79.72
59877;BME280;45749;51.140;17.184;2023-03-26T10:34:33;98935.59;;;10.59;79.40
59877;BME280;45749;51.140;17.184;2023-03-26T10:42:49;98922.81;;;10.64;79.10
59877;BME280;45749;51.140;17.184;2023-03-26T10:56:51;98902.72;;;11.26;74.97
59877;BME280;45749;51.140;17.184;2023-03-26T10:59:18;98913.53;;;11.33;75.27
59877;BME280;45749;51.140;17.184;2023-03-26T11:04:46;98912.00;;;11.31;72.46
59877;BME280;45749;51.140;17.184;2023-03-26T11:07:27;98902.13;;;11.33;72.89
59877;BME280;45749;51.140;17.184;2023-03-26T11:15:51;98925.22;;;11.31;76.06
59877;BME280;45749;51.140;17.184;2023-03-26T11:18:30;98919.88;;;11.22;77.21
59877;BME280;45749;51.140;17.184;2023-03-26T11:26:15;98906.59;;;11.32;78.30
59877;BME280;45749;51.140;17.184;2023-03-26T11:29:16;98893.38;;;11.50;78.27
59877;BME280;45749;51.140;17.184;2023-03-26T11:34:53;98893.78;;;11.99;76.51
59877;BME280;45749;51.140;17.184;2023-03-26T11:37:52;98903.13;;;12.11;73.76
59877;BME280;45749;51.140;17.184;2023-03-26T11:40:24;98897.22;;;12.17;74.97
59877;BME280;45749;51.140;17.184;2023-03-26T11:42:55;98890.50;;;12.31;74.59
59877;BME280;45749;51.140;17.184;2023-03-26T11:45:24;98896.03;;;12.46;74.83
59877;BME280;45749;51.140;17.184;2023-03-26T11:48:17;98903.03;;;12.63;72.45
59877;BME280;45749;51.140;17.184;2023-03-26T11:50:48;98894.13;;;12.64;72.87
59877;BME280;45749;51.140;17.184;2023-03-26T11:53:17;98894.06;;;12.56;73.11
59877;BME280;45749;51.140;17.184;2023-03-26T12:00:55;98882.19;;;12.26;72.24
59877;BME280;45749;51.140;17.184;2023-03-26T12:03:21;98879.00;;;12.14;73.35
59877;BME280;45749;51.140;17.184;2023-03-26T12:05:51;98877.00;;;12.08;73.16
59877;BME280;45749;51.140;17.184;2023-03-26T12:08:29;98882.09;;;12.10;72.91
59877;BME280;45749;51.140;17.184;2023-03-26T12:11:05;98878.59;;;12.01;71.78
59877;BME280;45749;51.140;17.184;2023-03-26T12:13:38;98875.88;;;11.93;71.97
59877;BME280;45749;51.140;17.184;2023-03-26T12:16:22;98875.53;;;11.88;71.43
59877;BME280;45749;51.140;17.184;2023-03-26T12:19:05;98866.50;;;11.81;71.83
59877;BME280;45749;51.140;17.184;2023-03-26T12:21:47;98872.50;;;11.83;73.09
59877;BME280;45749;51.140;17.184;2023-03-26T12:24:39;98863.97;;;11.89;72.80
59877;BME280;45749;51.140;17.184;2023-03-26T12:29:57;98861.41;;;11.79;72.05
59877;BME280;45749;51.140;17.184;2023-03-26T12:32:31;98865.34;;;11.75;72.67
59877;BME280;45749;51.140;17.184;2023-03-26T12:35:03;98860.19;;;11.73;72.52
59877;BME280;45749;51.140;17.184;2023-03-26T12:37:37;98856.25;;;11.78;72.80
59877;BME280;45749;51.140;17.184;2023-03-26T12:40:44;98858.59;;;11.81;72.63
59877;BME280;45749;51.140;17.184;2023-03-26T12:42:54;98846.59;;;11.86;73.14
59877;BME280;45749;51.140;17.184;2023-03-26T12:45:41;98852.81;;;12.03;73.32
59877;BME280;45749;51.140;17.184;2023-03-26T12:48:10;98845.91;;;12.10;71.25
59877;BME280;45749;51.140;17.184;2023-03-26T12:56:30;98837.16;;;12.10;68.70
59877;BME280;45749;51.140;17.184;2023-03-26T13:01:47;98829.09;;;12.11;68.56
59877;BME280;45749;51.140;17.184;2023-03-26T13:04:36;98835.19;;;12.12;68.88
59877;BME280;45749;51.140;17.184;2023-03-26T13:07:28;98827.56;;;12.09;67.57
59877;BME280;45749;51.140;17.184;2023-03-26T13:12:36;98815.88;;;12.19;68.47
59877;BME280;45749;51.140;17.184;2023-03-26T13:15:11;98812.78;;;12.24;68.00
59877;BME280;45749;51.140;17.184;2023-03-26T13:21:25;98810.66;;;12.36;67.84
59877;BME280;45749;51.140;17.184;2023-03-26T13:24:02;98813.31;;;12.36;67.58
59877;BME280;45749;51.140;17.184;2023-03-26T13:29:24;98811.69;;;12.43;67.38
59877;BME280;45749;51.140;17.184;2023-03-26T13:37:24;98801.66;;;12.63;67.50
59877;BME280;45749;51.140;17.184;2023-03-26T13:47:51;98786.13;;;12.68;66.01
59877;BME280;45749;51.140;17.184;2023-03-26T13:50:21;98793.41;;;12.66;66.13
59877;BME280;45749;51.140;17.184;2023-03-26T13:55:35;98792.28;;;12.77;65.61
59877;BME280;45749;51.140;17.184;2023-03-26T13:58:11;98803.88;;;12.84;66.08
59877;BME280;45749;51.140;17.184;2023-03-26T14:06:09;98798.56;;;12.84;65.64
59877;BME280;45749;51.140;17.184;2023-03-26T14:08:41;98797.06;;;12.89;65.40
59877;BME280;45749;51.140;17.184;2023-03-26T14:11:11;98792.13;;;12.95;65.09
59877;BME280;45749;51.140;17.184;2023-03-26T14:13:42;98800.22;;;12.93;64.65
59877;BME280;45749;51.140;17.184;2023-03-26T14:16:11;98790.00;;;12.90;64.67
59877;BME280;45749;51.140;17.184;2023-03-26T14:18:46;98788.00;;;12.92;65.49
59877;BME280;45749;51.140;17.184;2023-03-26T14:21:38;98781.69;;;12.93;64.78
59877;BME280;45749;51.140;17.184;2023-03-26T14:24:38;98779.53;;;12.88;63.71
59877;BME280;45749;51.140;17.184;2023-03-26T14:41:50;98762.84;;;12.88;62.72
59877;BME280;45749;51.140;17.184;2023-03-26T14:44:35;98759.03;;;12.82;63.28
59877;BME280;45749;51.140;17.184;2023-03-26T14:52:48;98752.75;;;12.83;63.65
59877;BME280;45749;51.140;17.184;2023-03-26T15:12:59;98747.94;;;12.71;62.92
59877;BME280;45749;51.140;17.184;2023-03-26T15:57:25;98746.06;;;11.96;67.57
59877;BME280;45749;51.140;17.184;2023-03-26T16:00:21;98747.16;;;11.85;67.28
59877;BME280;45749;51.140;17.184;2023-03-26T16:06:29;98751.13;;;11.63;67.97
59877;BME280;45749;51.140;17.184;2023-03-26T16:11:55;98760.56;;;11.40;68.04
59877;BME280;45749;51.140;17.184;2023-03-26T16:14:23;98757.13;;;11.21;68.10
59877;BME280;45749;51.140;17.184;2023-03-26T16:17:04;98765.13;;;11.12;68.13
59877;BME280;45749;51.140;17.184;2023-03-26T16:22:55;98754.22;;;10.89;68.39
59877;BME280;45749;51.140;17.184;2023-03-26T16:25:28;98751.06;;;10.85;68.89
59877;BME280;45749;51.140;17.184;2023-03-26T16:28:26;98741.78;;;10.81;69.04
59877;BME280;45749;51.140;17.184;2023-03-26T16:34:16;98735.59;;;10.72;69.17
59877;BME280;45749;51.140;17.184;2023-03-26T16:36:32;98731.47;;;10.70;69.21
59877;BME280;45749;51.140;17.184;2023-03-26T16:49:18;98712.53;;;10.39;69.77
59877;BME280;45749;51.140;17.184;2023-03-26T17:02:33;98708.38;;;10.08;70.76
59877;BME280;45749;51.140;17.184;2023-03-26T17:05:06;98709.50;;;10.06;71.05
59877;BME280;45749;51.140;17.184;2023-03-26T17:10:35;98704.41;;;10.04;71.04
59877;BME280;45749;51.140;17.184;2023-03-26T17:13:09;98708.44;;;9.99;71.25
59877;BME280;45749;51.140;17.184;2023-03-26T17:15:44;98703.75;;;9.93;71.67
59877;BME280;45749;51.140;17.184;2023-03-26T17:19:00;98712.53;;;9.83;71.78
59877;BME280;45749;51.140;17.184;2023-03-26T17:21:08;98706.06;;;9.78;72.38
59877;BME280;45749;51.140;17.184;2023-03-26T17:33:40;98712.50;;;9.56;73.11
59877;BME280;45749;51.140;17.184;2023-03-26T17:41:08;98711.16;;;9.52;73.64
59877;BME280;45749;51.140;17.184;2023-03-26T17:46:45;98717.53;;;9.49;73.87
59877;BME280;45749;51.140;17.184;2023-03-26T17:48:46;98714.06;;;9.49;74.05
59877;BME280;45749;51.140;17.184;2023-03-26T17:51:22;98708.94;;;9.47;74.18
59877;BME280;45749;51.140;17.184;2023-03-26T17:53:53;98715.34;;;9.45;74.46
59877;BME280;45749;51.140;17.184;2023-03-26T17:56:20;98716.28;;;9.44;74.49
59877;BME280;45749;51.140;17.184;2023-03-26T17:58:49;98713.81;;;9.42;74.60
59877;BME280;45749;51.140;17.184;2023-03-26T18:01:25;98707.03;;;9.39;74.74
59877;BME280;45749;51.140;17.184;2023-03-26T18:03:53;98710.94;;;9.35;74.83
59877;BME280;45749;51.140;17.184;2023-03-26T18:16:48;98733.09;;;9.23;76.00
59877;BME280;45749;51.140;17.184;2023-03-26T18:19:14;98727.47;;;9.18;76.21
59877;BME280;45749;51.140;17.184;2023-03-26T18:21:56;98728.84;;;9.12;76.20
59877;BME280;45749;51.140;17.184;2023-03-26T18:29:23;98727.88;;;9.04;77.05
59877;BME280;45749;51.140;17.184;2023-03-26T18:34:22;98730.22;;;8.97;77.87
59877;BME280;45749;51.140;17.184;2023-03-26T18:39:38;98726.22;;;8.93;78.49
59877;BME280;45749;51.140;17.184;2023-03-26T18:42:04;98712.25;;;8.92;78.63
59877;BME280;45749;51.140;17.184;2023-03-26T18:44:30;98718.19;;;8.95;78.93
59877;BME280;45749;51.140;17.184;2023-03-26T18:46:56;98709.63;;;8.92;79.00
59877;BME280;45749;51.140;17.184;2023-03-26T18:49:22;98710.56;;;8.91;79.06
59877;BME280;45749;51.140;17.184;2023-03-26T18:51:48;98696.47;;;8.92;79.28
59877;BME280;45749;51.140;17.184;2023-03-26T18:54:15;98704.47;;;8.91;79.41
59877;BME280;45749;51.140;17.184;2023-03-26T18:56:42;98701.19;;;8.89;79.79
59877;BME280;45749;51.140;17.184;2023-03-26T18:59:30;98706.28;;;8.90;79.85
59877;BME280;45749;51.140;17.184;2023-03-26T19:02:01;98704.63;;;8.89;79.98
59877;BME280;45749;51.140;17.184;2023-03-26T19:04:28;98696.75;;;8.89;80.08
59877;BME280;45749;51.140;17.184;2023-03-26T19:06:57;98700.34;;;8.88;79.90
59877;BME280;45749;51.140;17.184;2023-03-26T19:09:22;98692.59;;;8.87;80.09
59877;BME280;45749;51.140;17.184;2023-03-26T19:11:49;98695.22;;;8.87;80.25